sensor_id;sensor_type;location;lat;lon;timestamp;temperature;humidity
20815;DHT22;10568;48.176;16.316;2024-01-15T00:01:17;-2.20;99.90
20815;DHT22;10568;48.176;16.316;2024-01-15T00:03:44;-2.20;99.90
20815;DHT22;10568;48.176;16.316;2024-01-15T00:06:14;-2.10;99.90
20815;DHT22;10568;48.176;16.316;2024-01-15T00:08:41;-2.10;99.90
20815;DHT22;10568;48.176;16.316;2024-01-15T00:11:08;-2.00;99.90
20815;DHT22;10568;48.176;16.316;2024-01-15T00:13:36;-1.90;99.90
20815;DHT22;10568;48.176;16.316;2024-01-15T00:16:04;-1.90;99.90
20815;DHT22;10568;48.176;16.316;2024-01-15T00:18:32;-1.70;99.90
20815;DHT22;10568;48.176;16.316;2024-01-15T00:21:00;-0.60;99.90
20815;DHT22;10568;48.176;16.316;2024-01-15T00:23:27;-1.00;99.90
20815;DHT22;10568;48.176;16.316;2024-01-15T00:25:54;-1.10;99.90
20815;DHT22;10568;48.176;16.316;2024-01-15T00:28:22;-1.80;99.90
20815;DHT22;10568;48.176;16.316;2024-01-15T00:30:49;-1.80;99.90
20815;DHT22;10568;48.176;16.316;2024-01-15T00:33:16;-1.00;99.90
20815;DHT22;10568;48.176;16.316;2024-01-15T00:35:44;-1.10;99.90
20815;DHT22;10568;48.176;16.316;2024-01-15T00:38:11;-1.60;99.90
20815;DHT22;10568;48.176;16.316;2024-01-15T00:40:38;-1.50;99.90
20815;DHT22;10568;48.176;16.316;2024-01-15T00:43:06;-1.50;99.90
20815;DHT22;10568;48.176;16.316;2024-01-15T00:45:34;-1.50;99.90
20815;DHT22;10568;48.176;16.316;2024-01-15T00:48:01;-1.50;99.90
20815;DHT22;10568;48.176;16.316;2024-01-15T00:50:29;-1.40;99.90
20815;DHT22;10568;48.176;16.316;2024-01-15T00:52:56;-1.40;99.90
20815;DHT22;10568;48.176;16.316;2024-01-15T00:55:23;-1.40;99.90
20815;DHT22;10568;48.176;16.316;2024-01-15T00:57:51;-1.40;99.90
20815;DHT22;10568;48.176;16.316;2024-01-15T01:00:18;-1.50;99.90
20815;DHT22;10568;48.176;16.316;2024-01-15T01:02:45;-1.40;99.90
20815;DHT22;10568;48.176;16.316;2024-01-15T01:05:12;-1.40;99.90
20815;DHT22;10568;48.176;16.316;2024-01-15T01:07:40;-1.40;99.90
20815;DHT22;10568;48.176;16.316;2024-01-15T01:10:07;-1.30;99.90
20815;DHT22;10568;48.176;16.316;2024-01-15T01:12:34;-1.30;99.90
20815;DHT22;10568;48.176;16.316;2024-01-15T01:15:02;-1.20;99.90
20815;DHT22;10568;48.176;16.316;2024-01-15T01:17:29;-1.20;99.90
20815;DHT22;10568;48.176;16.316;2024-01-15T01:19:58;-0.30;99.90
20815;DHT22;10568;48.176;16.316;2024-01-15T01:22:25;-0.60;99.90
20815;DHT22;10568;48.176;16.316;2024-01-15T01:24:52;-1.30;99.90
20815;DHT22;10568;48.176;16.316;2024-01-15T01:27:19;-1.30;99.90
20815;DHT22;10568;48.176;16.316;2024-01-15T01:29:46;-1.30;99.90
20815;DHT22;10568;48.176;16.316;2024-01-15T01:32:14;-1.30;99.90
20815;DHT22;10568;48.176;16.316;2024-01-15T01:34:41;-1.30;99.90
20815;DHT22;10568;48.176;16.316;2024-01-15T01:37:12;-1.30;99.90
20815;DHT22;10568;48.176;16.316;2024-01-15T01:39:41;-1.30;99.90
20815;DHT22;10568;48.176;16.316;2024-01-15T01:42:34;-1.30;99.90
20815;DHT22;10568;48.176;16.316;2024-01-15T01:45:01;-1.30;99.90
20815;DHT22;10568;48.176;16.316;2024-01-15T01:47:29;-1.30;99.90
20815;DHT22;10568;48.176;16.316;2024-01-15T01:49:56;-1.20;99.90
20815;DHT22;10568;48.176;16.316;2024-01-15T01:52:23;-1.40;99.90
20815;DHT22;10568;48.176;16.316;2024-01-15T01:54:52;-1.20;99.90
20815;DHT22;10568;48.176;16.316;2024-01-15T01:57:19;-1.20;99.90
20815;DHT22;10568;48.176;16.316;2024-01-15T01:59:47;0.10;99.90
20815;DHT22;10568;48.176;16.316;2024-01-15T02:02:16;-1.20;99.90
20815;DHT22;10568;48.176;16.316;2024-01-15T02:04:43;-2.10;99.90
20815;DHT22;10568;48.176;16.316;2024-01-15T02:07:11;-0.50;99.90
20815;DHT22;10568;48.176;16.316;2024-01-15T02:10:04;-1.20;99.90
20815;DHT22;10568;48.176;16.316;2024-01-15T02:12:33;-1.20;99.90
20815;DHT22;10568;48.176;16.316;2024-01-15T02:15:00;-1.20;99.90
20815;DHT22;10568;48.176;16.316;2024-01-15T02:17:27;-1.20;99.90
20815;DHT22;10568;48.176;16.316;2024-01-15T02:19:54;-0.40;99.90
20815;DHT22;10568;48.176;16.316;2024-01-15T02:22:22;-1.20;99.90
20815;DHT22;10568;48.176;16.316;2024-01-15T02:24:49;-1.30;99.90
20815;DHT22;10568;48.176;16.316;2024-01-15T02:27:17;-1.40;99.90
20815;DHT22;10568;48.176;16.316;2024-01-15T02:29:44;-1.30;99.90
20815;DHT22;10568;48.176;16.316;2024-01-15T02:32:11;-1.30;99.90
20815;DHT22;10568;48.176;16.316;2024-01-15T02:34:38;-1.30;99.90
20815;DHT22;10568;48.176;16.316;2024-01-15T02:37:06;-1.30;99.90
20815;DHT22;10568;48.176;16.316;2024-01-15T02:39:33;-1.10;99.90
20815;DHT22;10568;48.176;16.316;2024-01-15T02:42:00;-0.90;99.90
20815;DHT22;10568;48.176;16.316;2024-01-15T02:44:27;-0.70;99.90
20815;DHT22;10568;48.176;16.316;2024-01-15T02:46:54;-0.60;99.90
20815;DHT22;10568;48.176;16.316;2024-01-15T02:49:21;0.40;99.90
20815;DHT22;10568;48.176;16.316;2024-01-15T02:51:49;-0.20;99.90
20815;DHT22;10568;48.176;16.316;2024-01-15T02:54:22;-0.10;99.90
20815;DHT22;10568;48.176;16.316;2024-01-15T02:56:50;0.10;99.90
20815;DHT22;10568;48.176;16.316;2024-01-15T02:59:17;0.10;99.90
20815;DHT22;10568;48.176;16.316;2024-01-15T03:01:44;0.70;99.90
20815;DHT22;10568;48.176;16.316;2024-01-15T03:04:11;0.10;99.90
20815;DHT22;10568;48.176;16.316;2024-01-15T03:06:38;0.10;99.90
20815;DHT22;10568;48.176;16.316;2024-01-15T03:09:05;0.20;99.90
20815;DHT22;10568;48.176;16.316;2024-01-15T03:11:39;0.20;99.90
20815;DHT22;10568;48.176;16.316;2024-01-15T03:14:07;0.30;99.90
20815;DHT22;10568;48.176;16.316;2024-01-15T03:16:34;1.40;99.90
20815;DHT22;10568;48.176;16.316;2024-01-15T03:19:01;0.40;99.90
20815;DHT22;10568;48.176;16.316;2024-01-15T03:21:28;0.40;99.90
20815;DHT22;10568;48.176;16.316;2024-01-15T03:23:55;0.50;99.90
20815;DHT22;10568;48.176;16.316;2024-01-15T03:26:22;0.60;99.90
20815;DHT22;10568;48.176;16.316;2024-01-15T03:28:49;1.40;99.90
20815;DHT22;10568;48.176;16.316;2024-01-15T03:31:17;0.70;99.90
20815;DHT22;10568;48.176;16.316;2024-01-15T03:33:44;0.70;99.90
20815;DHT22;10568;48.176;16.316;2024-01-15T03:36:11;0.70;99.90
20815;DHT22;10568;48.176;16.316;2024-01-15T03:38:41;0.70;99.90
20815;DHT22;10568;48.176;16.316;2024-01-15T03:41:08;0.70;99.90
20815;DHT22;10568;48.176;16.316;2024-01-15T03:43:35;0.70;99.90
20815;DHT22;10568;48.176;16.316;2024-01-15T03:46:03;0.60;99.90
20815;DHT22;10568;48.176;16.316;2024-01-15T03:48:32;0.60;99.90
20815;DHT22;10568;48.176;16.316;2024-01-15T03:50:59;0.90;99.90
20815;DHT22;10568;48.176;16.316;2024-01-15T03:53:26;0.60;99.90
20815;DHT22;10568;48.176;16.316;2024-01-15T03:55:54;0.50;99.90
20815;DHT22;10568;48.176;16.316;2024-01-15T03:58:21;0.50;99.90
20815;DHT22;10568;48.176;16.316;2024-01-15T04:00:48;0.50;99.90
20815;DHT22;10568;48.176;16.316;2024-01-15T04:03:16;0.60;99.90
20815;DHT22;10568;48.176;16.316;2024-01-15T04:05:43;0.60;99.90
20815;DHT22;10568;48.176;16.316;2024-01-15T04:08:10;1.00;99.90
20815;DHT22;10568;48.176;16.316;2024-01-15T04:10:37;0.60;99.90
20815;DHT22;10568;48.176;16.316;2024-01-15T04:13:04;0.60;99.90
20815;DHT22;10568;48.176;16.316;2024-01-15T04:15:31;1.40;99.90
20815;DHT22;10568;48.176;16.316;2024-01-15T04:17:59;0.60;99.90
20815;DHT22;10568;48.176;16.316;2024-01-15T04:20:28;0.60;99.90
20815;DHT22;10568;48.176;16.316;2024-01-15T04:22:55;1.50;99.90
20815;DHT22;10568;48.176;16.316;2024-01-15T04:25:22;0.70;99.90
20815;DHT22;10568;48.176;16.316;2024-01-15T04:27:49;0.80;99.90
20815;DHT22;10568;48.176;16.316;2024-01-15T04:30:17;0.90;99.90
20815;DHT22;10568;48.176;16.316;2024-01-15T04:32:44;1.10;99.90
20815;DHT22;10568;48.176;16.316;2024-01-15T04:35:13;1.00;99.90
20815;DHT22;10568;48.176;16.316;2024-01-15T04:37:40;0.80;99.90
20815;DHT22;10568;48.176;16.316;2024-01-15T04:40:08;0.80;99.90
20815;DHT22;10568;48.176;16.316;2024-01-15T04:42:35;0.90;99.90
20815;DHT22;10568;48.176;16.316;2024-01-15T04:45:02;0.90;99.90
20815;DHT22;10568;48.176;16.316;2024-01-15T04:47:56;0.80;99.90
20815;DHT22;10568;48.176;16.316;2024-01-15T04:50:25;0.80;99.90
20815;DHT22;10568;48.176;16.316;2024-01-15T04:52:52;0.70;99.90
20815;DHT22;10568;48.176;16.316;2024-01-15T04:55:19;0.70;99.90
20815;DHT22;10568;48.176;16.316;2024-01-15T04:57:46;0.70;99.90
20815;DHT22;10568;48.176;16.316;2024-01-15T05:00:13;0.70;99.90
20815;DHT22;10568;48.176;16.316;2024-01-15T05:02:41;0.60;99.90
20815;DHT22;10568;48.176;16.316;2024-01-15T05:05:09;0.80;99.90
20815;DHT22;10568;48.176;16.316;2024-01-15T05:07:36;0.50;99.90
20815;DHT22;10568;48.176;16.316;2024-01-15T05:10:03;0.50;99.90
20815;DHT22;10568;48.176;16.316;2024-01-15T05:12:31;0.40;99.90
20815;DHT22;10568;48.176;16.316;2024-01-15T05:14:58;0.40;99.90
20815;DHT22;10568;48.176;16.316;2024-01-15T05:17:25;0.40;99.90
20815;DHT22;10568;48.176;16.316;2024-01-15T05:19:52;0.50;99.90
20815;DHT22;10568;48.176;16.316;2024-01-15T05:22:19;0.30;99.90
20815;DHT22;10568;48.176;16.316;2024-01-15T05:24:48;0.30;99.90
20815;DHT22;10568;48.176;16.316;2024-01-15T05:27:15;0.30;99.90
20815;DHT22;10568;48.176;16.316;2024-01-15T05:29:43;0.40;99.90
20815;DHT22;10568;48.176;16.316;2024-01-15T05:32:10;0.40;99.90
20815;DHT22;10568;48.176;16.316;2024-01-15T05:34:37;0.30;99.90
20815;DHT22;10568;48.176;16.316;2024-01-15T05:37:04;0.20;99.90
20815;DHT22;10568;48.176;16.316;2024-01-15T05:39:31;0.20;99.90
20815;DHT22;10568;48.176;16.316;2024-01-15T05:41:59;0.30;99.90
20815;DHT22;10568;48.176;16.316;2024-01-15T05:44:27;0.30;99.90
20815;DHT22;10568;48.176;16.316;2024-01-15T05:46:54;-0.70;99.90
20815;DHT22;10568;48.176;16.316;2024-01-15T05:49:21;0.60;99.90
20815;DHT22;10568;48.176;16.316;2024-01-15T05:51:48;0.10;99.90
20815;DHT22;10568;48.176;16.316;2024-01-15T05:54:17;0.20;99.90
20815;DHT22;10568;48.176;16.316;2024-01-15T05:56:45;0.60;99.90
20815;DHT22;10568;48.176;16.316;2024-01-15T05:59:13;0.10;99.90
20815;DHT22;10568;48.176;16.316;2024-01-15T06:01:42;0.10;99.90
20815;DHT22;10568;48.176;16.316;2024-01-15T06:04:09;0.20;99.90
20815;DHT22;10568;48.176;16.316;2024-01-15T06:06:37;0.30;99.90
20815;DHT22;10568;48.176;16.316;2024-01-15T06:09:04;0.20;99.90
20815;DHT22;10568;48.176;16.316;2024-01-15T06:11:34;0.00;99.90
20815;DHT22;10568;48.176;16.316;2024-01-15T06:14:01;0.90;99.90
20815;DHT22;10568;48.176;16.316;2024-01-15T06:16:29;0.20;99.90
20815;DHT22;10568;48.176;16.316;2024-01-15T06:18:56;0.20;99.90
20815;DHT22;10568;48.176;16.316;2024-01-15T06:21:23;0.10;99.90
20815;DHT22;10568;48.176;16.316;2024-01-15T06:23:51;0.10;99.90
20815;DHT22;10568;48.176;16.316;2024-01-15T06:26:18;0.00;99.90
20815;DHT22;10568;48.176;16.316;2024-01-15T06:28:45;0.00;99.90
20815;DHT22;10568;48.176;16.316;2024-01-15T06:31:13;0.40;99.90
20815;DHT22;10568;48.176;16.316;2024-01-15T06:33:40;-0.10;99.90
20815;DHT22;10568;48.176;16.316;2024-01-15T06:36:08;-0.10;99.90
20815;DHT22;10568;48.176;16.316;2024-01-15T06:38:35;-0.10;99.90
20815;DHT22;10568;48.176;16.316;2024-01-15T06:41:03;0.90;99.90
20815;DHT22;10568;48.176;16.316;2024-01-15T06:43:30;-0.30;99.90
20815;DHT22;10568;48.176;16.316;2024-01-15T06:45:57;-0.30;99.90
20815;DHT22;10568;48.176;16.316;2024-01-15T06:48:24;-0.30;99.90
20815;DHT22;10568;48.176;16.316;2024-01-15T06:50:52;0.30;99.90
20815;DHT22;10568;48.176;16.316;2024-01-15T06:53:19;-0.40;99.90
20815;DHT22;10568;48.176;16.316;2024-01-15T06:55:46;-0.50;99.90
20815;DHT22;10568;48.176;16.316;2024-01-15T06:58:13;-0.50;99.90
20815;DHT22;10568;48.176;16.316;2024-01-15T07:00:41;-0.50;99.90
20815;DHT22;10568;48.176;16.316;2024-01-15T07:03:08;-0.40;99.90
20815;DHT22;10568;48.176;16.316;2024-01-15T07:05:35;-0.40;99.90
20815;DHT22;10568;48.176;16.316;2024-01-15T07:08:04;-0.30;99.90
20815;DHT22;10568;48.176;16.316;2024-01-15T07:10:31;-0.20;99.90
20815;DHT22;10568;48.176;16.316;2024-01-15T07:13:02;-0.10;99.90
20815;DHT22;10568;48.176;16.316;2024-01-15T07:15:29;-0.10;99.90
20815;DHT22;10568;48.176;16.316;2024-01-15T07:17:56;-0.10;99.90
20815;DHT22;10568;48.176;16.316;2024-01-15T07:20:24;0.10;99.90
20815;DHT22;10568;48.176;16.316;2024-01-15T07:22:51;0.00;99.90
20815;DHT22;10568;48.176;16.316;2024-01-15T07:25:18;0.10;99.90
20815;DHT22;10568;48.176;16.316;2024-01-15T07:27:45;0.10;99.90
20815;DHT22;10568;48.176;16.316;2024-01-15T07:30:13;0.20;99.90
20815;DHT22;10568;48.176;16.316;2024-01-15T07:32:41;0.20;99.90
20815;DHT22;10568;48.176;16.316;2024-01-15T07:35:09;0.80;99.90
20815;DHT22;10568;48.176;16.316;2024-01-15T07:37:37;0.20;99.90
20815;DHT22;10568;48.176;16.316;2024-01-15T07:40:05;0.20;99.90
20815;DHT22;10568;48.176;16.316;2024-01-15T07:42:35;0.20;99.90
20815;DHT22;10568;48.176;16.316;2024-01-15T07:45:03;0.20;99.90
20815;DHT22;10568;48.176;16.316;2024-01-15T07:47:30;0.40;99.90
20815;DHT22;10568;48.176;16.316;2024-01-15T07:49:57;0.40;99.90
20815;DHT22;10568;48.176;16.316;2024-01-15T07:52:31;0.50;99.90
20815;DHT22;10568;48.176;16.316;2024-01-15T07:54:58;0.60;99.90
20815;DHT22;10568;48.176;16.316;2024-01-15T07:57:27;0.70;99.90
20815;DHT22;10568;48.176;16.316;2024-01-15T07:59:55;0.80;99.90
20815;DHT22;10568;48.176;16.316;2024-01-15T08:02:22;0.90;99.90
20815;DHT22;10568;48.176;16.316;2024-01-15T08:04:49;1.00;99.90
20815;DHT22;10568;48.176;16.316;2024-01-15T08:07:16;1.10;99.90
20815;DHT22;10568;48.176;16.316;2024-01-15T08:09:44;1.40;99.90
20815;DHT22;10568;48.176;16.316;2024-01-15T08:12:15;1.20;99.90
20815;DHT22;10568;48.176;16.316;2024-01-15T08:14:42;1.20;99.90
20815;DHT22;10568;48.176;16.316;2024-01-15T08:17:09;1.20;99.90
20815;DHT22;10568;48.176;16.316;2024-01-15T08:19:36;1.20;99.90
20815;DHT22;10568;48.176;16.316;2024-01-15T08:22:04;1.20;99.90
20815;DHT22;10568;48.176;16.316;2024-01-15T08:24:31;1.20;99.90
20815;DHT22;10568;48.176;16.316;2024-01-15T08:26:59;2.00;99.90
20815;DHT22;10568;48.176;16.316;2024-01-15T08:29:26;1.20;99.90
20815;DHT22;10568;48.176;16.316;2024-01-15T08:31:53;1.20;99.90
20815;DHT22;10568;48.176;16.316;2024-01-15T08:34:21;1.60;99.90
20815;DHT22;10568;48.176;16.316;2024-01-15T08:36:48;1.30;99.90
20815;DHT22;10568;48.176;16.316;2024-01-15T08:39:15;1.40;99.90
20815;DHT22;10568;48.176;16.316;2024-01-15T08:41:43;1.40;99.90
20815;DHT22;10568;48.176;16.316;2024-01-15T08:44:10;2.60;99.90
20815;DHT22;10568;48.176;16.316;2024-01-15T08:46:37;1.50;99.90
20815;DHT22;10568;48.176;16.316;2024-01-15T08:49:04;1.50;99.90
20815;DHT22;10568;48.176;16.316;2024-01-15T08:51:33;1.50;99.90
20815;DHT22;10568;48.176;16.316;2024-01-15T08:54:00;1.50;99.90
20815;DHT22;10568;48.176;16.316;2024-01-15T08:56:27;1.50;99.90
20815;DHT22;10568;48.176;16.316;2024-01-15T08:58:54;1.50;99.90
20815;DHT22;10568;48.176;16.316;2024-01-15T09:01:22;1.60;99.90
20815;DHT22;10568;48.176;16.316;2024-01-15T09:03:50;1.70;99.90
20815;DHT22;10568;48.176;16.316;2024-01-15T09:06:17;1.70;99.90
20815;DHT22;10568;48.176;16.316;2024-01-15T09:08:44;1.90;99.90
20815;DHT22;10568;48.176;16.316;2024-01-15T09:11:12;1.60;99.90
20815;DHT22;10568;48.176;16.316;2024-01-15T09:13:39;1.90;99.90
20815;DHT22;10568;48.176;16.316;2024-01-15T09:16:07;2.20;99.90
20815;DHT22;10568;48.176;16.316;2024-01-15T09:18:34;1.70;99.90
20815;DHT22;10568;48.176;16.316;2024-01-15T09:21:04;1.60;99.90
20815;DHT22;10568;48.176;16.316;2024-01-15T09:23:32;1.60;99.90
20815;DHT22;10568;48.176;16.316;2024-01-15T09:25:59;1.60;99.90
20815;DHT22;10568;48.176;16.316;2024-01-15T09:28:26;1.50;99.90
20815;DHT22;10568;48.176;16.316;2024-01-15T09:30:53;1.90;99.90
20815;DHT22;10568;48.176;16.316;2024-01-15T09:33:20;1.50;99.90
20815;DHT22;10568;48.176;16.316;2024-01-15T09:35:47;1.50;99.90
20815;DHT22;10568;48.176;16.316;2024-01-15T09:38:14;1.60;99.90
20815;DHT22;10568;48.176;16.316;2024-01-15T09:40:43;1.60;99.90
20815;DHT22;10568;48.176;16.316;2024-01-15T09:43:13;1.60;99.90
20815;DHT22;10568;48.176;16.316;2024-01-15T09:45:42;1.70;99.90
20815;DHT22;10568;48.176;16.316;2024-01-15T09:48:10;2.70;99.90
20815;DHT22;10568;48.176;16.316;2024-01-15T09:50:38;2.00;99.90
20815;DHT22;10568;48.176;16.316;2024-01-15T09:53:06;2.20;99.90
20815;DHT22;10568;48.176;16.316;2024-01-15T09:55:33;2.30;99.90
20815;DHT22;10568;48.176;16.316;2024-01-15T09:58:00;2.50;99.90
20815;DHT22;10568;48.176;16.316;2024-01-15T10:00:30;2.60;99.90
20815;DHT22;10568;48.176;16.316;2024-01-15T10:03:00;3.60;99.90
20815;DHT22;10568;48.176;16.316;2024-01-15T10:05:28;2.80;99.90
20815;DHT22;10568;48.176;16.316;2024-01-15T10:07:56;2.80;99.90
20815;DHT22;10568;48.176;16.316;2024-01-15T10:10:24;2.80;99.90
20815;DHT22;10568;48.176;16.316;2024-01-15T10:12:51;3.00;99.90
20815;DHT22;10568;48.176;16.316;2024-01-15T10:15:22;3.00;99.90
20815;DHT22;10568;48.176;16.316;2024-01-15T10:17:53;3.20;99.90
20815;DHT22;10568;48.176;16.316;2024-01-15T10:20:21;3.10;99.90
20815;DHT22;10568;48.176;16.316;2024-01-15T10:22:51;3.10;99.90
20815;DHT22;10568;48.176;16.316;2024-01-15T10:25:18;3.20;99.90
20815;DHT22;10568;48.176;16.316;2024-01-15T10:28:00;3.10;99.90
20815;DHT22;10568;48.176;16.316;2024-01-15T10:30:28;3.00;99.90
20815;DHT22;10568;48.176;16.316;2024-01-15T10:33:03;3.10;99.90
20815;DHT22;10568;48.176;16.316;2024-01-15T10:35:33;3.00;99.90
20815;DHT22;10568;48.176;16.316;2024-01-15T10:38:02;3.00;99.90
20815;DHT22;10568;48.176;16.316;2024-01-15T10:40:30;3.00;99.90
20815;DHT22;10568;48.176;16.316;2024-01-15T10:42:58;3.00;99.90
20815;DHT22;10568;48.176;16.316;2024-01-15T10:45:25;3.80;99.90
20815;DHT22;10568;48.176;16.316;2024-01-15T10:47:54;3.00;99.90
20815;DHT22;10568;48.176;16.316;2024-01-15T10:50:30;2.90;99.90
20815;DHT22;10568;48.176;16.316;2024-01-15T10:52:58;3.00;99.90
20815;DHT22;10568;48.176;16.316;2024-01-15T10:55:26;3.00;99.90
20815;DHT22;10568;48.176;16.316;2024-01-15T10:57:56;3.30;99.90
20815;DHT22;10568;48.176;16.316;2024-01-15T11:00:24;4.20;99.90
20815;DHT22;10568;48.176;16.316;2024-01-15T11:02:52;3.20;99.90
20815;DHT22;10568;48.176;16.316;2024-01-15T11:05:23;3.20;99.90
20815;DHT22;10568;48.176;16.316;2024-01-15T11:07:50;3.40;99.90
20815;DHT22;10568;48.176;16.316;2024-01-15T11:18:34;3.50;99.90
20815;DHT22;10568;48.176;16.316;2024-01-15T11:23:48;3.70;99.90
20815;DHT22;10568;48.176;16.316;2024-01-15T11:29:02;3.90;99.90
20815;DHT22;10568;48.176;16.316;2024-01-15T11:34:18;3.70;99.90
20815;DHT22;10568;48.176;16.316;2024-01-15T11:37:03;3.90;99.90
20815;DHT22;10568;48.176;16.316;2024-01-15T11:42:03;3.50;99.90
20815;DHT22;10568;48.176;16.316;2024-01-15T11:44:31;3.60;99.90
20815;DHT22;10568;48.176;16.316;2024-01-15T11:47:03;3.60;99.90
20815;DHT22;10568;48.176;16.316;2024-01-15T11:50:02;3.50;99.90
20815;DHT22;10568;48.176;16.316;2024-01-15T11:52:36;3.50;99.90
20815;DHT22;10568;48.176;16.316;2024-01-15T11:55:22;3.40;99.90
20815;DHT22;10568;48.176;16.316;2024-01-15T11:57:53;3.30;99.90
20815;DHT22;10568;48.176;16.316;2024-01-15T12:00:24;3.40;99.90
20815;DHT22;10568;48.176;16.316;2024-01-15T12:02:51;3.30;99.90
20815;DHT22;10568;48.176;16.316;2024-01-15T12:05:20;3.20;99.90
20815;DHT22;10568;48.176;16.316;2024-01-15T12:07:49;3.10;99.90
20815;DHT22;10568;48.176;16.316;2024-01-15T12:10:19;3.20;99.90
20815;DHT22;10568;48.176;16.316;2024-01-15T12:15:29;3.50;99.90
20815;DHT22;10568;48.176;16.316;2024-01-15T12:17:58;3.30;99.90
20815;DHT22;10568;48.176;16.316;2024-01-15T12:20:30;3.80;99.90
20815;DHT22;10568;48.176;16.316;2024-01-15T12:22:58;3.20;99.90
20815;DHT22;10568;48.176;16.316;2024-01-15T12:25:31;3.10;99.90
20815;DHT22;10568;48.176;16.316;2024-01-15T12:28:06;3.10;99.90
20815;DHT22;10568;48.176;16.316;2024-01-15T12:30:39;3.10;99.90
20815;DHT22;10568;48.176;16.316;2024-01-15T12:33:11;3.20;99.90
20815;DHT22;10568;48.176;16.316;2024-01-15T12:35:38;3.20;99.90
20815;DHT22;10568;48.176;16.316;2024-01-15T12:38:07;3.10;99.90
20815;DHT22;10568;48.176;16.316;2024-01-15T12:40:37;2.90;99.90
20815;DHT22;10568;48.176;16.316;2024-01-15T12:43:06;3.10;99.90
20815;DHT22;10568;48.176;16.316;2024-01-15T12:45:37;3.20;99.90
20815;DHT22;10568;48.176;16.316;2024-01-15T12:48:05;3.20;99.90
20815;DHT22;10568;48.176;16.316;2024-01-15T12:50:36;3.20;99.90
20815;DHT22;10568;48.176;16.316;2024-01-15T12:53:06;3.20;99.90
20815;DHT22;10568;48.176;16.316;2024-01-15T12:55:37;3.20;99.90
20815;DHT22;10568;48.176;16.316;2024-01-15T12:58:05;3.30;99.90
20815;DHT22;10568;48.176;16.316;2024-01-15T13:00:35;3.40;99.90
20815;DHT22;10568;48.176;16.316;2024-01-15T13:03:03;3.40;99.90
20815;DHT22;10568;48.176;16.316;2024-01-15T13:05:32;3.50;99.90
20815;DHT22;10568;48.176;16.316;2024-01-15T13:08:01;3.70;99.90
20815;DHT22;10568;48.176;16.316;2024-01-15T13:10:29;3.50;99.90
20815;DHT22;10568;48.176;16.316;2024-01-15T13:12:57;4.00;99.90
20815;DHT22;10568;48.176;16.316;2024-01-15T13:15:24;3.50;99.90
20815;DHT22;10568;48.176;16.316;2024-01-15T13:17:51;3.50;99.90
20815;DHT22;10568;48.176;16.316;2024-01-15T13:20:18;3.60;99.90
20815;DHT22;10568;48.176;16.316;2024-01-15T13:22:48;3.60;99.90
20815;DHT22;10568;48.176;16.316;2024-01-15T13:25:15;3.50;99.90
20815;DHT22;10568;48.176;16.316;2024-01-15T13:27:43;3.50;99.90
20815;DHT22;10568;48.176;16.316;2024-01-15T13:30:11;3.50;99.90
20815;DHT22;10568;48.176;16.316;2024-01-15T13:32:40;3.50;99.90
20815;DHT22;10568;48.176;16.316;2024-01-15T13:35:07;3.50;99.90
20815;DHT22;10568;48.176;16.316;2024-01-15T13:37:37;3.50;99.90
20815;DHT22;10568;48.176;16.316;2024-01-15T13:40:07;3.50;99.90
20815;DHT22;10568;48.176;16.316;2024-01-15T13:42:36;3.30;99.90
20815;DHT22;10568;48.176;16.316;2024-01-15T13:45:07;3.30;99.90
20815;DHT22;10568;48.176;16.316;2024-01-15T13:47:34;3.20;99.90
20815;DHT22;10568;48.176;16.316;2024-01-15T13:50:02;3.20;99.90
20815;DHT22;10568;48.176;16.316;2024-01-15T13:52:30;3.20;99.90
20815;DHT22;10568;48.176;16.316;2024-01-15T13:54:57;3.20;99.90
20815;DHT22;10568;48.176;16.316;2024-01-15T13:57:24;3.30;99.90
20815;DHT22;10568;48.176;16.316;2024-01-15T13:59:51;3.90;99.90
20815;DHT22;10568;48.176;16.316;2024-01-15T14:02:18;3.40;99.90
20815;DHT22;10568;48.176;16.316;2024-01-15T14:04:50;3.30;99.90
20815;DHT22;10568;48.176;16.316;2024-01-15T14:07:20;4.10;99.90
20815;DHT22;10568;48.176;16.316;2024-01-15T14:09:50;3.50;99.90
20815;DHT22;10568;48.176;16.316;2024-01-15T14:12:17;3.30;99.90
20815;DHT22;10568;48.176;16.316;2024-01-15T14:14:44;3.30;99.90
20815;DHT22;10568;48.176;16.316;2024-01-15T14:17:20;3.30;99.90
20815;DHT22;10568;48.176;16.316;2024-01-15T14:19:47;3.20;99.90
20815;DHT22;10568;48.176;16.316;2024-01-15T14:22:14;3.40;99.90
20815;DHT22;10568;48.176;16.316;2024-01-15T14:24:41;3.50;99.90
20815;DHT22;10568;48.176;16.316;2024-01-15T14:27:08;3.10;99.90
20815;DHT22;10568;48.176;16.316;2024-01-15T14:29:36;3.10;99.90
20815;DHT22;10568;48.176;16.316;2024-01-15T14:32:05;3.60;99.90
20815;DHT22;10568;48.176;16.316;2024-01-15T14:34:32;2.90;99.90
20815;DHT22;10568;48.176;16.316;2024-01-15T14:36:59;2.70;99.90
20815;DHT22;10568;48.176;16.316;2024-01-15T14:39:27;2.60;99.90
20815;DHT22;10568;48.176;16.316;2024-01-15T14:41:54;2.50;99.90
20815;DHT22;10568;48.176;16.316;2024-01-15T14:44:21;2.00;99.90
20815;DHT22;10568;48.176;16.316;2024-01-15T14:46:49;2.40;99.90
20815;DHT22;10568;48.176;16.316;2024-01-15T14:49:49;2.30;99.90
20815;DHT22;10568;48.176;16.316;2024-01-15T14:52:54;2.20;99.90
20815;DHT22;10568;48.176;16.316;2024-01-15T14:55:40;2.10;99.90
20815;DHT22;10568;48.176;16.316;2024-01-15T14:58:08;2.00;99.90
20815;DHT22;10568;48.176;16.316;2024-01-15T15:00:44;2.00;99.90
20815;DHT22;10568;48.176;16.316;2024-01-15T15:03:13;2.50;99.90
20815;DHT22;10568;48.176;16.316;2024-01-15T15:05:44;1.90;99.90
20815;DHT22;10568;48.176;16.316;2024-01-15T15:08:12;1.90;99.90
20815;DHT22;10568;48.176;16.316;2024-01-15T15:10:39;1.80;99.90
20815;DHT22;10568;48.176;16.316;2024-01-15T15:13:07;1.80;99.90
20815;DHT22;10568;48.176;16.316;2024-01-15T15:15:44;1.80;99.90
20815;DHT22;10568;48.176;16.316;2024-01-15T15:18:11;1.70;99.90
20815;DHT22;10568;48.176;16.316;2024-01-15T15:20:38;1.70;99.90
20815;DHT22;10568;48.176;16.316;2024-01-15T15:23:05;1.70;99.90
20815;DHT22;10568;48.176;16.316;2024-01-15T15:25:35;1.70;99.90
20815;DHT22;10568;48.176;16.316;2024-01-15T15:28:03;1.70;99.90
20815;DHT22;10568;48.176;16.316;2024-01-15T15:30:39;1.70;99.90
20815;DHT22;10568;48.176;16.316;2024-01-15T15:33:06;1.70;99.90
20815;DHT22;10568;48.176;16.316;2024-01-15T15:35:34;1.70;99.90
20815;DHT22;10568;48.176;16.316;2024-01-15T15:38:13;1.70;99.90
20815;DHT22;10568;48.176;16.316;2024-01-15T15:40:40;1.70;99.90
20815;DHT22;10568;48.176;16.316;2024-01-15T15:43:07;1.70;99.90
20815;DHT22;10568;48.176;16.316;2024-01-15T15:45:35;2.20;99.90
20815;DHT22;10568;48.176;16.316;2024-01-15T15:48:03;1.60;99.90
20815;DHT22;10568;48.176;16.316;2024-01-15T15:50:30;1.60;99.90
20815;DHT22;10568;48.176;16.316;2024-01-15T15:53:00;1.50;99.90
20815;DHT22;10568;48.176;16.316;2024-01-15T15:55:29;2.10;99.90
20815;DHT22;10568;48.176;16.316;2024-01-15T15:57:56;2.50;99.90